Time;durP1;ratioP1;P1;durP2;ratioP2;P2;SDS_P1;SDS_P2;PMS_P1;PMS_P2;Temp;Humidity;BMP_temperature;BMP_pressure;BME280_temperature;BME280_humidity;BME280_pressure;Samples;Min_cycle;Max_cycle;Signal;HPM_P1;HPM_P2
2021/10/18 00:00:33;;;;;;;14.40;8.23;;;;;;;11.37;74.65;102109.50;4992781;28;20066;-51
2021/10/18 00:03:01;;;;;;;13.25;8.23;;;;;;;11.37;75.36;102108.69;4996853;28;20452;-49
2021/10/18 00:05:32;;;;;;;16.27;9.13;;;;;;;11.31;75.56;102113.22;4992737;28;20408;-50
2021/10/18 00:08:00;;;;;;;15.70;8.38;;;;;;;11.28;75.21;102103.63;4991538;28;20034;-51
2021/10/18 00:10:28;;;;;;;15.93;8.20;;;;;;;11.29;75.80;102108.00;4992929;28;20097;-51
2021/10/18 00:13:16;;;;;;;14.63;8.32;;;;;;;11.27;75.96;102110.13;4992344;28;20768;-52
2021/10/18 00:15:44;;;;;;;15.02;8.85;;;;;;;11.27;75.80;102114.75;4992046;28;20046;-50
2021/10/18 00:18:12;;;;;;;14.50;8.75;;;;;;;11.28;76.31;102108.22;4992733;28;20498;-52
2021/10/18 00:20:42;;;;;;;14.13;8.50;;;;;;;11.29;75.68;102099.81;4992742;28;20046;-50
2021/10/18 00:23:10;;;;;;;15.05;8.60;;;;;;;11.29;75.65;102101.72;4991724;28;20659;-51
2021/10/18 00:25:38;;;;;;;17.23;9.82;;;;;;;11.28;76.35;102100.03;4992701;28;20505;-51
2021/10/18 00:28:06;;;;;;;15.75;8.63;;;;;;;11.28;75.94;102100.88;4992309;28;20441;-50
2021/10/18 00:30:34;;;;;;;15.63;8.75;;;;;;;11.27;76.30;102106.56;4992454;28;20477;-50
2021/10/18 00:33:02;;;;;;;15.10;8.57;;;;;;;11.26;76.09;102110.38;4991891;28;20100;-52
2021/10/18 00:35:30;;;;;;;16.38;8.95;;;;;;;11.25;75.71;102111.44;4991975;28;20046;-51
2021/10/18 00:37:58;;;;;;;16.98;9.32;;;;;;;11.23;76.17;102111.69;4992276;28;20109;-51
2021/10/18 00:40:26;;;;;;;17.73;9.50;;;;;;;11.24;76.28;102117.97;4992828;28;20046;-52
2021/10/18 00:42:54;;;;;;;15.77;8.90;;;;;;;11.24;76.40;102115.25;4992001;28;20050;-51
2021/10/18 00:45:22;;;;;;;15.43;8.88;;;;;;;11.25;76.57;102116.91;4990778;28;20497;-50
2021/10/18 00:47:50;;;;;;;17.13;9.48;;;;;;;11.25;76.59;102127.81;4992529;28;20048;-52
2021/10/18 00:50:18;;;;;;;18.23;9.55;;;;;;;11.23;76.44;102132.66;4992166;28;20062;-51
2021/10/18 00:52:46;;;;;;;17.42;9.57;;;;;;;11.23;76.62;102124.50;4991856;28;20046;-52
2021/10/18 00:55:14;;;;;;;18.17;9.40;;;;;;;11.17;76.56;102130.91;4988359;28;20539;-51
2021/10/18 00:57:42;;;;;;;19.98;9.60;;;;;;;11.15;76.96;102139.34;5007213;28;20047;-52
2021/10/18 01:00:10;;;;;;;14.48;9.05;;;;;;;11.16;77.05;102145.63;4991224;28;20046;-52
2021/10/18 01:02:38;;;;;;;14.55;9.05;;;;;;;11.17;76.77;102141.84;4991932;28;20054;-50
2021/10/18 01:05:07;;;;;;;17.08;9.40;;;;;;;11.18;77.26;102138.84;4999618;28;20516;-52
2021/10/18 01:07:35;;;;;;;16.38;9.20;;;;;;;11.18;77.19;102143.47;4992205;28;20034;-49
2021/10/18 01:10:04;;;;;;;16.42;10.27;;;;;;;11.17;77.13;102147.28;4991578;28;20101;-52
2021/10/18 01:12:31;;;;;;;13.88;9.55;;;;;;;11.16;76.96;102138.28;4991760;28;20493;-52
2021/10/18 01:15:00;;;;;;;16.13;9.00;;;;;;;11.17;77.03;102139.09;4991875;28;20097;-52
2021/10/18 01:17:28;;;;;;;17.58;8.85;;;;;;;11.18;77.37;102138.03;4991382;28;20561;-51
2021/10/18 01:19:56;;;;;;;15.63;9.40;;;;;;;11.18;77.30;102138.03;4992451;28;20062;-51
2021/10/18 01:22:24;;;;;;;15.85;9.32;;;;;;;11.19;76.79;102135.06;4991776;28;20038;-51
2021/10/18 01:24:52;;;;;;;16.05;9.25;;;;;;;11.17;76.83;102137.19;4991830;28;20113;-51
2021/10/18 01:27:19;;;;;;;15.10;9.63;;;;;;;11.16;77.17;102141.00;4987646;28;20047;-52
2021/10/18 01:29:47;;;;;;;15.90;9.52;;;;;;;11.14;77.36;102134.13;4991935;28;20101;-52
2021/10/18 01:32:15;;;;;;;14.65;9.35;;;;;;;11.14;77.39;102125.97;4991796;28;20464;-53
2021/10/18 01:34:43;;;;;;;18.48;9.20;;;;;;;11.15;77.17;102127.59;4991467;28;20089;-51
2021/10/18 01:37:11;;;;;;;16.10;9.45;;;;;;;11.16;77.08;102123.78;4991560;28;20050;-51
2021/10/18 01:39:39;;;;;;;15.65;9.18;;;;;;;11.18;76.80;102127.13;4990072;28;20053;-51
2021/10/18 01:42:06;;;;;;;16.63;8.82;;;;;;;11.16;76.96;102121.91;4991416;28;20046;-52
2021/10/18 01:44:34;;;;;;;15.50;9.23;;;;;;;11.16;76.64;102119.19;4994880;28;20039;-52
2021/10/18 01:47:02;;;;;;;17.40;9.32;;;;;;;11.17;77.23;102128.19;4994704;28;20413;-51
2021/10/18 01:49:30;;;;;;;16.95;9.27;;;;;;;11.17;77.13;102139.94;4995175;28;20038;-48
2021/10/18 01:51:58;;;;;;;17.50;9.32;;;;;;;11.20;76.99;102135.88;4995614;28;20057;-52
2021/10/18 01:54:26;;;;;;;14.82;8.57;;;;;;;11.26;76.46;102138.50;4995055;28;20043;-49
2021/10/18 01:56:54;;;;;;;15.55;8.82;;;;;;;11.27;76.27;102121.03;4995072;28;20035;-51
2021/10/18 01:59:21;;;;;;;14.90;8.88;;;;;;;11.25;76.40;102125.91;4994807;28;20057;-52
2021/10/18 02:01:49;;;;;;;15.80;9.43;;;;;;;11.22;76.64;102123.66;4995137;28;20136;-51
2021/10/18 02:04:17;;;;;;;15.32;8.70;;;;;;;11.18;76.24;102125.22;4995446;28;20077;-50
2021/10/18 02:06:45;;;;;;;14.73;8.93;;;;;;;11.17;76.83;102120.00;4995236;28;20042;-51
2021/10/18 02:09:13;;;;;;;15.82;9.57;;;;;;;11.17;76.52;102120.00;4994420;28;20039;-52
2021/10/18 02:11:41;;;;;;;14.05;9.13;;;;;;;11.13;76.46;102116.09;4994817;28;20046;-51
2021/10/18 02:14:09;;;;;;;14.82;9.30;;;;;;;11.09;76.33;102124.75;4995132;28;20038;-52
2021/10/18 02:16:36;;;;;;;15.00;9.20;;;;;;;11.06;76.75;102108.03;4994493;28;20077;-48
2021/10/18 02:19:04;;;;;;;14.82;9.30;;;;;;;11.04;76.93;102102.84;4994537;28;20501;-51
2021/10/18 02:21:33;;;;;;;15.60;9.27;;;;;;;11.03;77.43;102103.06;4995059;28;20054;-51
2021/10/18 02:24:01;;;;;;;16.65;9.50;;;;;;;11.01;76.64;102103.28;4994273;28;20038;-51
2021/10/18 02:26:30;;;;;;;14.98;9.57;;;;;;;10.95;77.08;102096.09;4994308;28;20532;-51
2021/10/18 02:28:57;;;;;;;15.45;8.85;;;;;;;10.91;77.14;102100.34;4994482;28;20391;-52
2021/10/18 02:31:25;;;;;;;13.80;9.13;;;;;;;10.86;77.03;102092.88;4995021;28;20051;-54
2021/10/18 02:33:53;;;;;;;14.48;9.07;;;;;;;10.87;77.51;102099.16;4994735;28;20061;-51
2021/10/18 02:36:21;;;;;;;15.10;9.20;;;;;;;10.86;78.04;102102.97;4993218;28;20069;-51
2021/10/18 02:38:49;;;;;;;16.85;9.77;;;;;;;10.84;77.60;102105.09;4994218;28;20042;-51
2021/10/18 02:41:17;;;;;;;17.52;9.15;;;;;;;10.80;77.64;102109.34;4994751;28;20051;-52
2021/10/18 02:43:44;;;;;;;15.60;9.52;;;;;;;10.77;78.06;102102.50;4994650;28;20046;-51
2021/10/18 02:46:12;;;;;;;17.23;9.43;;;;;;;10.79;77.69;102102.25;4994005;28;20038;-52
2021/10/18 02:48:40;;;;;;;14.45;8.98;;;;;;;10.73;77.61;102098.59;4994434;28;20050;-51
2021/10/18 02:51:08;;;;;;;16.13;9.90;;;;;;;10.69;78.06;102102.84;4993992;28;20042;-51
2021/10/18 02:53:36;;;;;;;15.52;9.07;;;;;;;10.61;77.77;102104.06;4993790;28;20066;-52
2021/10/18 02:56:04;;;;;;;14.27;9.13;;;;;;;10.60;78.24;102105.09;5007946;28;20052;-51
2021/10/18 02:58:32;;;;;;;13.93;9.00;;;;;;;10.57;78.28;102100.13;4994461;28;20074;-52
2021/10/18 03:01:00;;;;;;;12.57;8.85;;;;;;;10.61;78.62;102104.06;4994252;28;20412;-52
2021/10/18 03:03:27;;;;;;;16.85;9.93;;;;;;;10.58;78.17;102115.44;4980909;28;20042;-50
2021/10/18 03:05:55;;;;;;;15.73;9.48;;;;;;;10.58;78.58;102112.72;4994013;28;20121;-51
2021/10/18 03:08:23;;;;;;;12.90;8.90;;;;;;;10.59;78.03;102103.44;4993032;28;20043;-51
2021/10/18 03:10:51;;;;;;;14.00;9.70;;;;;;;10.58;77.86;102096.34;4994008;28;20049;-49
2021/10/18 03:13:20;;;;;;;14.52;9.57;;;;;;;10.54;77.97;102092.44;4994185;28;20058;-52
2021/10/18 03:15:48;;;;;;;14.27;9.52;;;;;;;10.54;78.45;102083.44;4993830;28;20061;-49
2021/10/18 03:18:16;;;;;;;17.48;9.55;;;;;;;10.48;77.89;102073.47;4993729;28;20061;-50
2021/10/18 03:20:44;;;;;;;16.83;9.82;;;;;;;10.37;78.30;102075.97;4992098;28;20034;-51
2021/10/18 03:23:12;;;;;;;16.30;9.70;;;;;;;10.33;78.68;102082.09;4993261;28;20516;-51
2021/10/18 03:25:40;;;;;;;14.82;9.63;;;;;;;10.33;78.98;102079.38;4993762;28;20178;-48
2021/10/18 03:28:08;;;;;;;15.35;9.50;;;;;;;10.31;78.99;102076.06;4993269;28;20520;-52
2021/10/18 03:30:36;;;;;;;15.52;9.65;;;;;;;10.34;78.95;102090.06;4993201;28;20054;-51
2021/10/18 03:33:04;;;;;;;15.60;9.80;;;;;;;10.38;79.22;102093.13;4993947;28;20105;-52
2021/10/18 03:35:32;;;;;;;15.40;8.98;;;;;;;10.40;78.74;102088.28;4993307;28;20038;-52
2021/10/18 03:38:00;;;;;;;20.00;10.55;;;;;;;10.43;78.18;102087.78;4992869;28;20045;-51
2021/10/18 03:40:28;;;;;;;14.63;9.52;;;;;;;10.37;78.26;102081.41;4993041;28;20517;-48
2021/10/18 03:42:56;;;;;;;20.25;9.73;;;;;;;10.36;79.02;102087.06;4993090;28;20093;-51
2021/10/18 03:45:23;;;;;;;15.50;9.70;;;;;;;10.40;78.58;102082.81;4993361;28;20058;-52
2021/10/18 03:47:52;;;;;;;15.32;9.65;;;;;;;10.44;78.47;102084.03;4992097;28;20045;-51
2021/10/18 03:50:20;;;;;;;15.43;10.00;;;;;;;10.43;78.51;102094.06;4992700;28;20046;-51
2021/10/18 03:52:48;;;;;;;17.05;9.88;;;;;;;10.43;78.42;102093.25;4992421;28;20042;-52
2021/10/18 03:55:15;;;;;;;16.80;9.45;;;;;;;10.45;77.63;102099.28;4992985;28;20050;-51
2021/10/18 03:57:43;;;;;;;14.77;9.57;;;;;;;10.46;78.47;102098.22;4993283;28;20042;-52
2021/10/18 04:00:11;;;;;;;15.32;9.07;;;;;;;10.47;78.31;102099.91;4992317;28;20474;-50
2021/10/18 04:02:39;;;;;;;17.40;10.43;;;;;;;10.48;78.17;102095.25;4993167;28;20128;-50
2021/10/18 04:05:07;;;;;;;15.55;10.23;;;;;;;10.48;78.23;102098.00;4992761;28;20053;-52
2021/10/18 04:07:38;;;;;;;15.52;9.98;;;;;;;10.50;77.79;102098.59;4992165;28;20042;-51
2021/10/18 04:10:07;;;;;;;16.08;10.20;;;;;;;10.47;78.05;102099.91;4992428;28;20054;-51
2021/10/18 04:12:35;;;;;;;14.82;9.38;;;;;;;10.44;77.91;102095.75;4992931;28;20050;-51
2021/10/18 04:15:03;;;;;;;18.83;9.95;;;;;;;10.43;78.17;102110.41;4992900;28;20070;-52
2021/10/18 04:17:31;;;;;;;15.50;9.93;;;;;;;10.46;78.38;102120.00;4979534;28;20113;-51
2021/10/18 04:19:59;;;;;;;16.98;10.00;;;;;;;10.47;78.31;102116.25;4991990;28;20046;-52
2021/10/18 04:22:27;;;;;;;15.90;9.85;;;;;;;10.47;78.22;102109.97;4992012;28;20406;-52
2021/10/18 04:24:54;;;;;;;14.98;9.98;;;;;;;10.44;78.54;102114.81;4992632;28;20471;-51
2021/10/18 04:27:22;;;;;;;16.35;10.43;;;;;;;10.44;78.42;102112.09;4992640;28;20125;-51
2021/10/18 04:29:52;;;;;;;14.75;10.40;;;;;;;10.44;78.28;102111.28;4991669;28;20061;-51
2021/10/18 04:32:19;;;;;;;17.70;10.18;;;;;;;10.44;78.24;102108.53;4991891;28;20060;-49
2021/10/18 04:34:47;;;;;;;17.67;10.88;;;;;;;10.44;78.47;102116.72;4992167;28;20046;-50
2021/10/18 04:37:15;;;;;;;13.40;9.75;;;;;;;10.43;78.44;102113.13;4992087;28;20042;-50
2021/10/18 04:39:43;;;;;;;16.00;10.50;;;;;;;10.40;78.69;102110.06;4992199;28;20046;-51
2021/10/18 04:42:11;;;;;;;18.50;10.82;;;;;;;10.37;78.46;102107.81;4992394;28;20038;-51
2021/10/18 04:44:39;;;;;;;16.67;9.80;;;;;;;10.36;78.64;102108.88;4992338;28;20125;-50
2021/10/18 04:47:07;;;;;;;17.00;11.23;;;;;;;10.35;78.43;102113.50;4992052;28;20065;-51
2021/10/18 04:49:39;;;;;;;18.65;10.48;;;;;;;10.34;78.92;102117.31;4991728;28;20042;-52
2021/10/18 04:52:08;;;;;;;19.70;10.93;;;;;;;10.34;78.67;102116.44;4992072;28;20113;-52
2021/10/18 04:54:36;;;;;;;17.52;10.43;;;;;;;10.35;78.40;102126.31;4991937;28;20060;-51
2021/10/18 04:57:04;;;;;;;16.48;10.85;;;;;;;10.35;78.83;102129.84;4992497;28;20039;-50
2021/10/18 04:59:31;;;;;;;18.55;10.82;;;;;;;10.37;78.66;102124.19;4992014;28;20399;-52
2021/10/18 05:01:59;;;;;;;18.30;11.60;;;;;;;10.37;78.61;102126.91;4991483;28;20522;-52
2021/10/18 05:04:27;;;;;;;20.23;11.13;;;;;;;10.36;78.94;102125.22;4990385;28;20109;-52
2021/10/18 05:06:55;;;;;;;17.80;11.13;;;;;;;10.34;78.79;102130.06;4992687;28;20362;-51
2021/10/18 05:09:22;;;;;;;22.88;11.85;;;;;;;10.32;78.68;102129.47;4991844;28;20520;-48
2021/10/18 05:11:50;;;;;;;20.30;11.68;;;;;;;10.32;78.94;102134.91;4992126;28;20074;-47
2021/10/18 05:14:19;;;;;;;15.63;10.65;;;;;;;10.32;79.12;102129.47;4992106;28;21013;-49
2021/10/18 05:16:47;;;;;;;20.75;11.57;;;;;;;10.30;79.25;102120.72;4991730;28;20089;-52
2021/10/18 05:19:15;;;;;;;16.33;11.75;;;;;;;10.29;79.22;102129.94;4981080;28;20077;-52
2021/10/18 05:21:42;;;;;;;17.80;11.20;;;;;;;10.30;79.12;102120.72;4996217;28;20119;-50
2021/10/18 05:24:10;;;;;;;24.63;11.63;;;;;;;10.27;78.89;102123.88;4995208;28;20054;-51
2021/10/18 05:26:38;;;;;;;15.35;11.13;;;;;;;10.19;79.25;102116.88;4996180;28;20397;-51
2021/10/18 05:29:06;;;;;;;19.98;12.13;;;;;;;10.17;79.47;102122.56;4995747;28;20501;-52
2021/10/18 05:31:35;;;;;;;18.95;13.02;;;;;;;10.13;79.54;102129.53;4994934;28;20138;-48
2021/10/18 05:34:03;;;;;;;22.60;11.75;;;;;;;10.08;79.97;102129.41;4995057;28;20042;-51
2021/10/18 05:36:31;;;;;;;17.15;11.55;;;;;;;10.09;80.26;102135.69;4995942;28;20050;-52
2021/10/18 05:38:59;;;;;;;20.20;12.27;;;;;;;10.11;80.07;102139.00;4990629;28;20041;-52
2021/10/18 05:41:27;;;;;;;19.90;11.68;;;;;;;10.13;80.19;102136.88;4995532;28;20440;-52
2021/10/18 05:43:55;;;;;;;18.13;12.05;;;;;;;10.12;79.96;102138.75;4995345;28;20092;-52
2021/10/18 05:46:23;;;;;;;19.00;11.75;;;;;;;10.12;79.83;102135.19;4995051;28;20421;-50
2021/10/18 05:48:51;;;;;;;16.50;11.50;;;;;;;10.10;79.69;102138.19;4995081;28;20034;-50
2021/10/18 05:51:19;;;;;;;17.90;11.85;;;;;;;10.08;80.11;102142.16;4995522;28;20045;-52
2021/10/18 05:53:47;;;;;;;19.92;11.45;;;;;;;10.06;80.16;102144.31;4995135;28;20980;-52
2021/10/18 05:56:16;;;;;;;18.65;11.30;;;;;;;10.07;79.94;102143.25;4995257;28;20069;-52
2021/10/18 05:58:44;;;;;;;18.67;11.73;;;;;;;10.08;80.14;102150.34;4995221;28;20799;-47
2021/10/18 06:01:11;;;;;;;21.73;12.80;;;;;;;10.08;80.05;102143.03;4994600;28;20049;-47
2021/10/18 06:03:41;;;;;;;18.98;11.98;;;;;;;10.08;80.09;102151.19;4994379;28;20042;-48
2021/10/18 06:06:10;;;;;;;19.85;12.07;;;;;;;10.07;80.10;102152.25;4995028;28;20061;-48
2021/10/18 06:08:55;;;;;;;19.02;11.88;;;;;;;10.07;79.94;102156.84;4994784;28;20030;-47
2021/10/18 06:11:22;;;;;;;17.83;11.88;;;;;;;10.04;79.99;102152.72;4995088;28;20054;-48
2021/10/18 06:13:50;;;;;;;20.05;11.93;;;;;;;10.03;79.90;102156.50;4994410;28;20041;-48
2021/10/18 06:16:17;;;;;;;20.20;11.80;;;;;;;10.01;80.32;102151.28;4994582;28;20050;-47
2021/10/18 06:18:45;;;;;;;16.85;11.02;;;;;;;10.02;80.26;102154.81;4994209;28;20514;-47
2021/10/18 06:21:13;;;;;;;16.85;11.27;;;;;;;10.00;80.32;102148.78;4994819;28;20046;-47
2021/10/18 06:23:42;;;;;;;17.67;11.23;;;;;;;10.02;80.47;102160.28;5008765;28;20465;-46
2021/10/18 06:26:10;;;;;;;17.67;11.90;;;;;;;10.00;79.98;102156.94;4994339;28;20073;-46
2021/10/18 06:28:39;;;;;;;19.10;12.00;;;;;;;10.01;80.48;102156.72;4994374;28;20034;-46
2021/10/18 06:31:07;;;;;;;18.45;11.57;;;;;;;10.02;80.27;102165.72;4991845;28;20046;-46
2021/10/18 06:33:35;;;;;;;20.65;11.27;;;;;;;10.05;80.24;102172.59;4994343;28;20048;-48
2021/10/18 06:36:03;;;;;;;19.60;11.48;;;;;;;10.08;80.14;102170.25;4302335;28;10000675;-47
2021/10/18 06:38:31;;;;;;;19.48;12.18;;;;;;;10.10;80.19;102170.84;4992031;28;20046;-47
2021/10/18 06:40:59;;;;;;;17.33;11.32;;;;;;;10.10;80.06;102159.97;4992475;28;20313;-48
2021/10/18 06:43:27;;;;;;;18.48;11.73;;;;;;;10.12;79.75;102165.97;4989834;28;20046;-46
2021/10/18 06:45:55;;;;;;;21.20;12.13;;;;;;;10.12;79.74;102165.16;4991068;28;20053;-46
2021/10/18 06:48:23;;;;;;;17.20;11.35;;;;;;;10.11;79.58;102161.59;4991525;28;20109;-48
2021/10/18 06:50:51;;;;;;;15.77;11.40;;;;;;;10.12;79.70;102163.25;4991552;28;20038;-46
2021/10/18 06:53:27;;;;;;;17.60;11.77;;;;;;;10.14;79.74;102168.47;4991517;28;20042;-45
2021/10/18 06:55:54;;;;;;;19.20;12.93;;;;;;;10.14;79.33;102165.75;4991592;28;20057;-47
2021/10/18 06:58:22;;;;;;;19.55;12.00;;;;;;;10.13;79.45;102170.38;4987313;28;20114;-47
2021/10/18 07:00:52;;;;;;;18.95;12.20;;;;;;;10.16;79.26;102180.81;4991279;28;20078;-46
2021/10/18 07:03:19;;;;;;;18.92;11.80;;;;;;;10.16;79.02;102183.53;4991967;28;20438;-47
2021/10/18 07:05:47;;;;;;;18.38;12.05;;;;;;;10.16;78.81;102183.53;4989945;28;20046;-46
2021/10/18 07:08:18;;;;;;;20.13;13.15;;;;;;;10.08;79.25;102183.00;4991508;28;20050;-46
2021/10/18 07:10:46;;;;;;;19.95;12.35;;;;;;;10.00;80.04;102192.34;4991157;28;20066;-43
2021/10/18 07:13:14;;;;;;;20.63;13.15;;;;;;;10.03;79.92;102191.91;4990724;28;20048;-43
2021/10/18 07:15:42;;;;;;;17.52;12.68;;;;;;;10.03;79.89;102186.47;4990769;28;20042;-43
2021/10/18 07:18:09;;;;;;;16.88;12.18;;;;;;;10.03;79.93;102186.47;5006739;28;20046;-44
2021/10/18 07:20:37;;;;;;;18.25;12.35;;;;;;;10.07;79.88;102187.63;4991384;28;20046;-43
2021/10/18 07:23:10;;;;;;;17.05;12.30;;;;;;;10.10;79.31;102180.91;4991060;28;20042;-43
2021/10/18 07:25:41;;;;;;;18.73;12.45;;;;;;;10.04;79.33;102179.94;4988093;28;21774;-43
2021/10/18 07:28:09;;;;;;;18.23;12.15;;;;;;;10.05;79.50;102172.59;4991047;28;20073;-47
2021/10/18 07:30:38;;;;;;;17.40;11.48;;;;;;;10.09;79.67;102169.19;4990629;28;20062;-48
2021/10/18 07:33:06;;;;;;;17.90;11.32;;;;;;;10.10;79.22;102173.59;4991357;28;20442;-46
2021/10/18 07:35:35;;;;;;;17.17;11.82;;;;;;;10.11;79.37;102172.50;4989794;28;20042;-47
2021/10/18 07:38:04;;;;;;;17.02;11.80;;;;;;;10.14;79.77;102163.88;4991279;28;20042;-46
2021/10/18 07:40:32;;;;;;;20.80;12.15;;;;;;;10.19;79.67;102166.72;4990751;28;20039;-43
2021/10/18 07:43:02;;;;;;;19.40;12.32;;;;;;;10.22;79.07;102169.00;4989932;28;20068;-46
2021/10/18 07:45:30;;;;;;;18.92;12.48;;;;;;;10.23;79.05;102169.81;4990345;28;20054;-48
2021/10/18 07:47:58;;;;;;;17.95;11.68;;;;;;;10.21;79.16;102170.03;4990162;28;20053;-47
2021/10/18 07:50:25;;;;;;;17.58;12.18;;;;;;;10.20;79.16;102181.19;4991876;28;20065;-45
2021/10/18 07:52:53;;;;;;;17.70;12.30;;;;;;;10.16;79.23;102186.25;4992935;28;20120;-45
2021/10/18 07:55:21;;;;;;;20.05;14.07;;;;;;;10.16;79.57;102186.25;4992301;28;20050;-47
2021/10/18 07:57:51;;;;;;;19.73;12.23;;;;;;;10.18;79.42;102183.31;4991904;28;20048;-44
2021/10/18 08:00:19;;;;;;;16.95;12.15;;;;;;;10.20;79.61;102184.75;4993001;28;20081;-46
2021/10/18 08:02:46;;;;;;;19.45;12.82;;;;;;;10.24;79.71;102183.19;4992473;28;20042;-51
2021/10/18 08:05:17;;;;;;;16.23;11.05;;;;;;;10.30;79.59;102180.66;4992217;28;20045;-46
2021/10/18 08:07:48;;;;;;;15.75;11.85;;;;;;;10.32;79.27;102183.94;4991550;28;20049;-44
2021/10/18 08:10:23;;;;;;;18.02;11.75;;;;;;;10.32;79.40;102187.53;4992543;28;20061;-48
2021/10/18 08:12:56;;;;;;;15.70;11.70;;;;;;;10.33;79.28;102185.63;4991993;28;20579;-48
2021/10/18 08:15:24;;;;;;;16.75;12.43;;;;;;;10.35;79.34;102183.50;4990772;28;20042;-48
2021/10/18 08:17:53;;;;;;;17.95;11.82;;;;;;;10.36;79.31;102185.97;4992797;28;20051;-47
2021/10/18 08:20:21;;;;;;;18.40;12.02;;;;;;;10.38;79.61;102183.84;4992386;28;20084;-47
2021/10/18 08:22:49;;;;;;;21.90;12.30;;;;;;;10.40;79.58;102184.47;4992521;28;20042;-47
2021/10/18 08:25:18;;;;;;;15.50;10.98;;;;;;;10.41;79.83;102186.13;4991689;28;20046;-47
2021/10/18 08:27:46;;;;;;;15.73;11.82;;;;;;;10.45;79.69;102189.22;4990584;28;20070;-46
2021/10/18 08:30:14;;;;;;;19.70;11.60;;;;;;;10.50;79.51;102194.78;4991993;28;20057;-45
2021/10/18 08:32:42;;;;;;;16.98;11.65;;;;;;;10.52;79.09;102189.13;4992092;28;20038;-45
2021/10/18 08:35:11;;;;;;;16.15;11.57;;;;;;;10.54;79.81;102196.00;4991499;28;20068;-45
2021/10/18 08:40:30;;;;;;;18.83;11.60;;;;;;;10.56;79.45;102191.13;4984938;28;20398;-43
2021/10/18 08:45:32;;;;;;;19.17;12.32;;;;;;;10.62;79.27;102182.00;4991812;28;20042;-44
2021/10/18 08:47:59;;;;;;;18.63;12.38;;;;;;;10.63;79.51;102180.97;5007259;28;20053;-46
2021/10/18 08:50:27;;;;;;;21.80;13.02;;;;;;;10.66;79.41;102180.50;4992392;28;20046;-44
2021/10/18 08:52:55;;;;;;;19.65;12.75;;;;;;;10.70;79.41;102182.72;4991764;28;20398;-44
2021/10/18 08:55:22;;;;;;;19.42;12.30;;;;;;;10.75;79.08;102182.84;4991364;28;20054;-47
2021/10/18 08:57:50;;;;;;;19.30;13.35;;;;;;;10.78;79.18;102171.50;4990600;28;20050;-44
2021/10/18 09:00:42;;;;;;;20.15;14.32;;;;;;;10.78;79.33;102164.16;4992122;28;20038;-47
2021/10/18 09:03:15;;;;;;;22.38;13.48;;;;;;;10.84;78.97;102173.25;4992177;28;20128;-49
2021/10/18 09:05:42;;;;;;;22.55;13.75;;;;;;;10.85;79.43;102172.22;4990641;28;20047;-45
2021/10/18 09:08:37;;;;;;;26.10;14.65;;;;;;;10.92;78.73;102175.66;4990259;28;20042;-47
2021/10/18 09:11:16;;;;;;;19.67;12.13;;;;;;;11.00;78.77;102188.91;4991777;28;20050;-47
2021/10/18 09:13:55;;;;;;;26.15;13.52;;;;;;;11.15;79.78;102190.34;4988232;28;20055;-48
2021/10/18 09:16:42;;;;;;;23.60;12.85;;;;;;;11.28;78.75;102176.44;4991610;28;20041;-47
2021/10/18 09:19:15;;;;;;;20.38;13.98;;;;;;;11.31;76.88;102165.06;4991935;28;20054;-48
2021/10/18 09:21:53;;;;;;;29.38;12.93;;;;;;;11.34;77.57;102163.75;4992165;28;20055;-46
2021/10/18 09:24:32;;;;;;;23.35;14.02;;;;;;;11.28;77.42;102154.59;4986714;28;20096;-48
2021/10/18 09:27:03;;;;;;;18.90;14.07;;;;;;;11.25;77.21;102160.56;4991032;28;20062;-46
2021/10/18 09:29:39;;;;;;;27.30;12.27;;;;;;;11.28;77.88;102171.84;4991811;28;20053;-47
2021/10/18 09:32:07;;;;;;;;;;;;;;;11.40;81.03;102169.09;4991383;28;20513;-49
2021/10/18 09:34:36;;;;;;;23.95;11.73;;;;;;;11.40;79.40;102171.81;4988581;28;19957;-47
2021/10/18 09:37:11;;;;;;;28.90;12.80;;;;;;;11.43;80.53;102174.06;4991512;28;20043;-47
2021/10/18 09:39:47;;;;;;;20.30;13.13;;;;;;;11.41;78.30;102170.72;4991354;28;20516;-46
2021/10/18 09:42:19;;;;;;;22.10;11.80;;;;;;;11.41;79.08;102165.28;4991272;28;20041;-48
2021/10/18 09:45:00;;;;;;;22.80;12.75;;;;;;;11.42;77.99;102164.19;4985244;28;20053;-46
2021/10/18 10:56:45;;;;;;;20.42;14.52;;;;;;;11.84;75.25;102090.22;4993588;28;20046;-46
2021/10/18 10:59:25;;;;;;;19.35;14.05;;;;;;;11.89;75.37;102089.53;4987458;28;20043;-47
2021/10/18 11:02:06;;;;;;;20.00;14.25;;;;;;;11.94;74.76;102093.16;4640061;28;9999814;-45
2021/10/18 11:04:34;;;;;;;20.30;14.77;;;;;;;11.98;74.78;102093.53;4990031;28;20054;-43
2021/10/18 11:07:12;;;;;;;23.45;14.65;;;;;;;12.01;73.79;102087.56;4991708;28;20042;-49
2021/10/18 11:09:54;;;;;;;19.90;14.98;;;;;;;12.04;73.67;102091.69;4987020;28;20043;-47
2021/10/18 11:12:34;;;;;;;23.60;15.30;;;;;;;12.06;73.96;102095.00;4989679;28;20054;-45
2021/10/18 11:15:11;;;;;;;20.95;13.25;;;;;;;12.09;74.73;102089.03;4991077;28;20050;-47
2021/10/18 11:17:40;;;;;;;22.73;13.73;;;;;;;12.13;74.43;102090.22;4984732;28;20370;-47
2021/10/18 11:20:13;;;;;;;17.85;12.93;;;;;;;12.18;74.08;102098.50;4991457;28;20501;-47
2021/10/18 11:22:46;;;;;;;21.83;12.77;;;;;;;12.23;74.17;102084.91;4991370;28;20043;-47
2021/10/18 11:25:20;;;;;;;19.77;14.32;;;;;;;12.30;73.89;102084.75;4989768;28;20056;-48
2021/10/18 11:27:53;;;;;;;23.70;14.60;;;;;;;12.34;74.09;102067.63;4981869;28;20050;-50
2021/10/18 11:30:22;;;;;;;20.58;15.00;;;;;;;12.36;74.15;102062.72;4991415;28;20240;-47
2021/10/18 11:32:58;;;;;;;22.23;13.80;;;;;;;12.40;74.13;102062.22;4987514;28;20420;-47
2021/10/18 11:35:27;;;;;;;22.90;13.20;;;;;;;12.42;73.91;102049.13;4988879;28;20058;-47
2021/10/18 11:38:07;;;;;;;21.20;14.95;;;;;;;12.44;73.88;102053.28;4989894;28;20575;-47
2021/10/18 11:40:48;;;;;;;24.02;14.02;;;;;;;12.48;74.01;102054.44;5005516;28;20097;-48
2021/10/18 11:43:26;;;;;;;20.90;13.90;;;;;;;12.50;72.92;102057.72;4986445;28;20226;-42
2021/10/18 11:45:55;;;;;;;22.30;13.85;;;;;;;12.50;72.97;102055.00;4986382;28;20046;-45
2021/10/18 11:48:31;;;;;;;18.90;13.25;;;;;;;12.52;73.62;102043.81;4990379;28;20077;-46
2021/10/18 11:51:00;;;;;;;21.17;14.32;;;;;;;12.54;73.63;102037.03;4990787;28;20042;-47
2021/10/18 11:53:33;;;;;;;22.08;14.55;;;;;;;12.58;73.01;102040.09;4990270;28;20061;-47
2021/10/18 11:56:03;;;;;;;22.80;12.95;;;;;;;12.61;73.96;102042.31;5004814;28;20061;-44
2021/10/18 11:58:32;;;;;;;18.05;13.40;;;;;;;12.64;72.94;102030.88;4988693;28;20453;-45
2021/10/18 12:01:05;;;;;;;22.73;13.90;;;;;;;12.65;72.65;102010.66;4991954;28;20043;-43
2021/10/18 12:03:34;;;;;;;19.48;14.23;;;;;;;12.65;72.48;102021.59;4984154;28;20378;-44
2021/10/18 12:06:07;;;;;;;19.08;13.27;;;;;;;12.65;73.13;101998.88;4992325;28;20077;-46
2021/10/18 12:08:40;;;;;;;21.58;13.63;;;;;;;12.64;72.90;101995.31;4992205;28;20050;-47
2021/10/18 12:11:09;;;;;;;21.75;13.07;;;;;;;12.65;72.86;102004.34;4993003;28;20053;-46
2021/10/18 12:13:41;;;;;;;19.67;12.02;;;;;;;12.67;73.27;101997.53;4992516;28;20062;-46
2021/10/18 12:16:13;;;;;;;19.63;11.73;;;;;;;12.72;73.26;102000.38;4992679;28;20042;-45
2021/10/18 12:18:51;;;;;;;19.95;11.98;;;;;;;12.74;73.35;102000.09;4991929;28;20045;-47
2021/10/18 12:21:41;;;;;;;18.35;12.95;;;;;;;12.75;72.73;101996.28;4979911;28;20042;-46
2021/10/18 12:24:16;;;;;;;33.00;22.10;;;;;;;12.77;73.18;101997.69;4992338;28;20053;-44
2021/10/18 12:26:46;;;;;;;23.75;14.52;;;;;;;12.81;73.12;102002.66;4979510;28;20053;-43
2021/10/18 12:29:18;;;;;;;19.67;13.82;;;;;;;12.81;72.68;101991.72;4992538;28;20069;-44
2021/10/18 12:31:47;;;;;;;19.60;13.55;;;;;;;12.82;74.00;102007.03;4992393;28;20065;-46
2021/10/18 12:34:24;;;;;;;24.05;16.95;;;;;;;12.83;73.48;101995.84;4991721;28;20055;-46
2021/10/18 12:37:09;;;;;;;23.70;14.32;;;;;;;12.89;73.36;101994.84;4979135;28;20054;-42